Weather at Campo de Vuelo de Caspe

Public forecast

Using degrees Celsius for public forecast. Weather courtesy of forecast.io.

Closest aviation weather report (METAR) to Campo de Vuelo de Caspe

Closest report is Lleida-Alguaire Airport, 41.0 nm (75.9 km) NE. Retrieved 2021/06/19 20:30 UTC (13 minutes ago):

LEDA 192030Z AUTO 07008KT CAVOK 21/16 Q1014

Closest aviation forecast (TAF) to Campo de Vuelo de Caspe

Closest forecast is Lleida-Alguaire Airport, 41.0 nm (75.9 km) NE. Retrieved 2021/06/19 15:00 UTC (6 hours ago):

TAF LEDA 191400Z 1915/2015 VRB05KT 9999 FEW060 TX28/2014Z TN18/2006Z PROB40 TEMPO 1915/1921 VRB15G25KT 3000 TSRA FEW050CB PROB40 TEMPO 2003/2011 VRB15G25KT 3000 TSRA FEW050CB